createdAt,value
2022-12-14T00:00:33.259Z,-10.95
2022-12-14T00:01:36.774Z,-10.94
2022-12-14T00:02:42.865Z,-10.95
2022-12-14T00:03:50.281Z,-11.06
2022-12-14T00:04:53.668Z,-11.14
2022-12-14T00:06:03.117Z,-11.20
2022-12-14T00:07:07.877Z,-11.33
2022-12-14T00:08:15.545Z,-11.38
2022-12-14T00:09:21.455Z,-11.36
2022-12-14T00:10:25.640Z,-11.44
2022-12-14T00:11:35.250Z,-11.51
2022-12-14T00:12:41.222Z,-11.55
2022-12-14T00:13:44.919Z,-11.60
2022-12-14T00:14:55.183Z,-11.58
2022-12-14T00:15:59.258Z,-11.61
2022-12-14T00:17:06.006Z,-11.56
2022-12-14T00:18:11.713Z,-11.61
2022-12-14T00:19:17.697Z,-11.55
2022-12-14T00:20:21.187Z,-11.51
2022-12-14T00:21:31.169Z,-11.51
2022-12-14T00:22:35.326Z,-11.49
2022-12-14T00:23:43.338Z,-11.49
2022-12-14T00:24:46.810Z,-11.54
2022-12-14T00:25:52.838Z,-11.55
2022-12-14T00:26:56.137Z,-11.57
2022-12-14T00:28:03.077Z,-11.70
2022-12-14T00:29:06.418Z,-11.79
2022-12-14T00:30:14.703Z,-11.89
2022-12-14T00:31:18.360Z,-11.84
2022-12-14T00:32:26.547Z,-11.83
2022-12-14T00:33:31.135Z,-11.90
2022-12-14T00:34:37.262Z,-11.91
2022-12-14T00:35:40.641Z,-11.93
2022-12-14T00:36:49.163Z,-12.13
2022-12-14T00:37:52.545Z,-12.05
2022-12-14T00:38:59.351Z,-12.14
2022-12-14T00:40:02.724Z,-12.09
2022-12-14T00:41:10.070Z,-12.12
2022-12-14T00:42:13.419Z,-12.13
2022-12-14T00:43:19.407Z,-12.17
2022-12-14T00:44:26.430Z,-12.21
2022-12-14T00:45:29.795Z,-12.21
2022-12-14T00:46:35.819Z,-12.21
2022-12-14T00:47:40.975Z,-12.24
2022-12-14T00:48:47.262Z,-12.34
2022-12-14T00:49:53.655Z,-12.19
2022-12-14T00:51:00.095Z,-12.09
2022-12-14T00:52:08.912Z,-12.18
2022-12-14T00:53:12.702Z,-12.24
2022-12-14T00:54:19.131Z,-12.28
2022-12-14T00:55:23.422Z,-12.31
2022-12-14T00:56:29.505Z,-12.33
2022-12-14T00:57:32.820Z,-12.32
2022-12-14T00:58:39.128Z,-12.26
2022-12-14T00:59:43.327Z,-12.28
2022-12-14T01:01:02.356Z,-12.27
2022-12-14T01:02:06.359Z,-12.25
2022-12-14T01:03:13.905Z,-12.24
2022-12-14T01:04:22.619Z,-12.31
2022-12-14T01:05:29.076Z,-12.31
2022-12-14T01:06:33.182Z,-12.28
2022-12-14T01:07:41.771Z,-12.26
2022-12-14T01:08:45.210Z,-12.23
2022-12-14T01:09:51.177Z,-12.16
2022-12-14T01:10:54.753Z,-12.10
2022-12-14T01:12:01.575Z,-12.06
2022-12-14T01:13:04.859Z,-12.01
2022-12-14T01:14:12.280Z,-11.95
2022-12-14T01:15:15.636Z,-11.92
2022-12-14T01:16:21.663Z,-11.87
2022-12-14T01:17:28.615Z,-11.80
2022-12-14T01:18:35.472Z,-11.71
2022-12-14T01:19:41.617Z,-11.70
2022-12-14T01:20:45.060Z,-11.76
2022-12-14T01:21:51.071Z,-11.82
2022-12-14T01:22:58.060Z,-11.81
2022-12-14T01:24:06.702Z,-11.82
2022-12-14T01:25:10.291Z,-11.83
2022-12-14T01:26:17.997Z,-11.75
2022-12-14T01:27:21.520Z,-11.72
2022-12-14T01:28:28.513Z,-11.73
2022-12-14T01:29:34.515Z,-11.66
2022-12-14T01:30:40.508Z,-11.62
2022-12-14T01:31:48.621Z,-11.57
2022-12-14T01:32:53.050Z,-11.50
2022-12-14T01:34:00.959Z,-11.48
2022-12-14T01:35:05.305Z,-11.42
2022-12-14T01:36:14.800Z,-11.45
2022-12-14T01:37:18.178Z,-11.51
2022-12-14T01:38:26.860Z,-11.52
2022-12-14T01:39:34.208Z,-11.50
2022-12-14T01:40:38.044Z,-11.53
2022-12-14T01:41:47.541Z,-11.69
2022-12-14T01:42:50.967Z,-11.84
2022-12-14T01:44:00.272Z,-11.82
2022-12-14T01:45:07.455Z,-11.81
2022-12-14T01:46:13.565Z,-11.85
2022-12-14T01:47:31.788Z,-11.86
2022-12-14T01:48:35.270Z,-11.89
2022-12-14T01:49:52.021Z,-11.93
2022-12-14T01:50:56.387Z,-11.88
2022-12-14T01:52:12.657Z,-11.91
2022-12-14T01:53:28.978Z,-12.02
2022-12-14T01:54:41.073Z,-11.97
2022-12-14T01:55:55.022Z,-12.02
2022-12-14T01:57:00.093Z,-12.11
2022-12-14T01:58:14.356Z,-12.15
2022-12-14T01:59:26.831Z,-12.13
2022-12-14T02:00:33.342Z,-12.25
2022-12-14T02:01:37.674Z,-12.36
2022-12-14T02:02:51.344Z,-12.36
2022-12-14T02:03:55.303Z,-12.48
2022-12-14T02:05:08.953Z,-12.49
2022-12-14T02:06:20.137Z,-12.55
2022-12-14T02:07:30.876Z,-12.56
2022-12-14T02:08:47.059Z,-12.50
2022-12-14T02:09:54.135Z,-12.55
2022-12-14T02:11:02.902Z,-12.66
2022-12-14T02:12:15.357Z,-12.64
2022-12-14T02:13:29.205Z,-12.76
2022-12-14T02:14:34.506Z,-12.86
2022-12-14T02:15:42.620Z,-12.84
2022-12-14T02:16:46.217Z,-12.65
2022-12-14T02:17:53.119Z,-12.62
2022-12-14T02:18:56.505Z,-12.70
2022-12-14T02:20:02.906Z,-12.84
2022-12-14T02:21:35.435Z,-12.84
2022-12-14T02:23:35.491Z,-12.91
2022-12-14T02:25:20.553Z,-13.01
2022-12-14T02:27:00.255Z,-13.03
2022-12-14T02:28:56.612Z,-13.04
2022-12-14T02:30:08.966Z,-12.97
2022-12-14T02:31:28.884Z,-13.05
2022-12-14T02:33:04.998Z,-13.03
2022-12-14T02:34:24.868Z,-12.99
2022-12-14T02:35:49.764Z,-12.97
2022-12-14T02:37:04.566Z,-12.99
2022-12-14T02:38:34.839Z,-13.00
2022-12-14T02:40:00.595Z,-13.08
2022-12-14T02:41:20.260Z,-13.05
2022-12-14T02:42:40.323Z,-13.09
2022-12-14T02:44:07.291Z,-13.14
2022-12-14T02:45:27.584Z,-13.10
2022-12-14T02:46:50.560Z,-13.10
2022-12-14T02:48:03.513Z,-13.07
2022-12-14T02:49:19.276Z,-12.95
2022-12-14T02:50:34.336Z,-12.93
2022-12-14T02:51:59.162Z,-12.94
2022-12-14T02:53:16.119Z,-12.91
2022-12-14T02:54:34.627Z,-12.87
2022-12-14T02:55:50.397Z,-12.96
2022-12-14T02:57:12.264Z,-12.94
2022-12-14T02:58:24.663Z,-12.97
2022-12-14T02:59:31.839Z,-12.97
2022-12-14T03:00:39.408Z,-13.05
2022-12-14T03:01:47.970Z,-13.11
2022-12-14T03:02:54.130Z,-13.13
2022-12-14T03:04:00.373Z,-13.06
2022-12-14T03:05:05.163Z,-13.13
2022-12-14T03:06:26.437Z,-13.21
2022-12-14T03:07:45.721Z,-13.14
2022-12-14T03:09:04.171Z,-13.09
2022-12-14T03:10:35.832Z,-13.25
2022-12-14T03:11:56.386Z,-13.25
2022-12-14T03:13:18.825Z,-13.17
2022-12-14T03:14:31.922Z,-13.25
2022-12-14T03:15:48.459Z,-13.20
2022-12-14T03:16:57.578Z,-13.17
2022-12-14T03:18:10.121Z,-13.15
2022-12-14T03:19:23.539Z,-13.09
2022-12-14T03:20:37.102Z,-13.13
2022-12-14T03:21:51.880Z,-13.14
2022-12-14T03:23:04.005Z,-13.06
2022-12-14T03:24:19.315Z,-13.03
2022-12-14T03:25:38.119Z,-13.01
2022-12-14T03:26:53.753Z,-12.97
2022-12-14T03:28:10.186Z,-12.96
2022-12-14T03:29:23.130Z,-12.90
2022-12-14T03:30:58.698Z,-12.86
2022-12-14T03:32:06.987Z,-12.82
2022-12-14T03:33:19.634Z,-12.79
2022-12-14T03:34:34.690Z,-12.80
2022-12-14T03:35:47.183Z,-12.77
2022-12-14T03:37:03.359Z,-12.72
2022-12-14T03:38:19.943Z,-12.76
2022-12-14T03:39:36.546Z,-12.73
2022-12-14T03:40:51.136Z,-12.78
2022-12-14T03:42:13.670Z,-12.82
2022-12-14T03:43:34.399Z,-12.91
2022-12-14T03:44:50.295Z,-12.93
2022-12-14T03:46:10.315Z,-12.90
2022-12-14T03:47:46.915Z,-13.05
2022-12-14T03:48:56.853Z,-12.96
2022-12-14T03:50:11.618Z,-13.03
2022-12-14T03:51:33.746Z,-12.94
2022-12-14T03:52:46.876Z,-12.96
2022-12-14T03:54:09.858Z,-12.93
2022-12-14T03:55:33.374Z,-12.90
2022-12-14T03:56:53.057Z,-12.81
2022-12-14T03:58:26.641Z,-12.80
2022-12-14T03:59:50.007Z,-12.88
2022-12-14T04:01:07.036Z,-12.89
2022-12-14T04:02:29.369Z,-12.87
2022-12-14T04:03:56.670Z,-12.94
2022-12-14T04:05:12.805Z,-12.92
2022-12-14T04:06:32.359Z,-12.90
2022-12-14T04:07:48.595Z,-12.94
2022-12-14T04:09:07.309Z,-12.94
2022-12-14T04:10:35.138Z,-12.91
2022-12-14T04:12:06.501Z,-12.94
2022-12-14T04:13:33.262Z,-12.94
2022-12-14T04:15:02.815Z,-12.93
2022-12-14T04:16:30.841Z,-12.86
2022-12-14T04:17:57.954Z,-12.87
2022-12-14T04:19:15.969Z,-12.90
2022-12-14T04:20:31.188Z,-12.91
2022-12-14T04:21:44.929Z,-12.98
2022-12-14T04:23:02.439Z,-12.96
2022-12-14T04:24:35.941Z,-13.00
2022-12-14T04:26:02.554Z,-12.95
2022-12-14T04:27:21.752Z,-12.83
2022-12-14T04:28:50.752Z,-12.82
2022-12-14T04:30:03.726Z,-12.74
2022-12-14T04:31:15.349Z,-12.82
2022-12-14T04:32:30.960Z,-12.71
2022-12-14T04:33:47.655Z,-12.70
2022-12-14T04:35:03.989Z,-12.71
2022-12-14T04:36:08.564Z,-12.69
2022-12-14T04:37:22.904Z,-12.69
2022-12-14T04:38:37.708Z,-12.68
2022-12-14T04:39:54.828Z,-12.81
2022-12-14T04:41:10.621Z,-12.75
2022-12-14T04:42:21.801Z,-12.68
2022-12-14T04:43:34.905Z,-12.54
2022-12-14T04:44:46.760Z,-12.43
2022-12-14T04:46:02.471Z,-12.44
2022-12-14T04:47:17.578Z,-12.46
2022-12-14T04:48:37.166Z,-12.45
2022-12-14T04:49:56.555Z,-12.40
2022-12-14T04:51:17.623Z,-12.42
2022-12-14T04:52:36.458Z,-12.33
2022-12-14T04:53:50.685Z,-12.25
2022-12-14T04:55:06.011Z,-12.31
2022-12-14T04:56:23.734Z,-12.34
2022-12-14T04:57:40.798Z,-12.34
2022-12-14T04:58:44.802Z,-12.37
2022-12-14T04:59:53.482Z,-12.36
2022-12-14T05:01:22.778Z,-12.34
2022-12-14T05:03:00.185Z,-12.45
2022-12-14T05:04:19.249Z,-12.45
2022-12-14T05:05:39.767Z,-12.44
2022-12-14T05:07:07.729Z,-12.48
2022-12-14T05:08:26.682Z,-12.56
2022-12-14T05:09:42.296Z,-12.58
2022-12-14T05:11:14.955Z,-12.61
2022-12-14T05:12:34.185Z,-12.67
2022-12-14T05:13:48.948Z,-12.68
2022-12-14T05:15:09.424Z,-12.66
2022-12-14T05:16:20.482Z,-12.64
2022-12-14T05:17:27.459Z,-12.64
2022-12-14T05:18:36.669Z,-12.58
2022-12-14T05:19:49.130Z,-12.57
2022-12-14T05:20:55.100Z,-12.57
2022-12-14T05:22:10.839Z,-12.59
2022-12-14T05:23:16.615Z,-12.56
2022-12-14T05:24:22.524Z,-12.60
2022-12-14T05:25:28.640Z,-12.61
2022-12-14T05:26:32.648Z,-12.60
2022-12-14T05:27:38.610Z,-12.59
2022-12-14T05:28:45.924Z,-12.61
2022-12-14T05:29:58.432Z,-12.59
2022-12-14T05:31:01.905Z,-12.59
2022-12-14T05:32:07.951Z,-12.58
2022-12-14T05:33:19.571Z,-12.62
2022-12-14T05:34:27.012Z,-12.61
2022-12-14T05:35:30.473Z,-12.54
2022-12-14T05:36:39.017Z,-12.59
2022-12-14T05:37:45.448Z,-12.61
2022-12-14T05:38:52.733Z,-12.57
2022-12-14T05:39:59.358Z,-12.58
2022-12-14T05:41:02.746Z,-12.51
2022-12-14T05:42:10.547Z,-12.50
2022-12-14T05:43:14.261Z,-12.46
2022-12-14T05:44:20.167Z,-12.45
2022-12-14T05:45:24.416Z,-12.46
2022-12-14T05:46:30.435Z,-12.51
2022-12-14T05:47:33.847Z,-12.45
2022-12-14T05:48:39.690Z,-12.57
2022-12-14T05:49:45.712Z,-12.39
2022-12-14T05:50:54.031Z,-12.36
2022-12-14T05:52:02.839Z,-12.40
2022-12-14T05:53:06.239Z,-12.39
2022-12-14T05:54:12.264Z,-12.37
2022-12-14T05:55:17.220Z,-12.38
2022-12-14T05:56:24.129Z,-12.36
2022-12-14T05:57:30.018Z,-12.29
2022-12-14T05:58:34.257Z,-12.29
2022-12-14T05:59:40.280Z,-12.24
2022-12-14T06:00:43.586Z,-12.33
2022-12-14T06:01:53.248Z,-12.27
2022-12-14T06:02:56.606Z,-12.29
2022-12-14T06:04:02.686Z,-12.29
2022-12-14T06:05:07.181Z,-12.33
2022-12-14T06:06:16.594Z,-12.18
2022-12-14T06:07:27.713Z,-12.20
2022-12-14T06:08:38.581Z,-12.20
2022-12-14T06:09:44.454Z,-12.21
2022-12-14T06:10:47.688Z,-12.26
2022-12-14T06:11:53.861Z,-12.29
2022-12-14T06:12:58.182Z,-12.28
2022-12-14T06:14:04.153Z,-12.40
2022-12-14T06:15:09.038Z,-12.24
2022-12-14T06:16:19.147Z,-12.32
2022-12-14T06:17:22.456Z,-12.29
2022-12-14T06:18:29.172Z,-12.30
2022-12-14T06:19:35.071Z,-12.29
2022-12-14T06:20:38.412Z,-12.30
2022-12-14T06:21:46.856Z,-12.36
2022-12-14T06:22:55.270Z,-12.34
2022-12-14T06:24:03.352Z,-12.56
2022-12-14T06:25:08.774Z,-12.46
2022-12-14T06:26:15.979Z,-12.39
2022-12-14T06:27:21.924Z,-12.45
2022-12-14T06:28:26.317Z,-12.44
2022-12-14T06:29:33.595Z,-12.47
2022-12-14T06:30:36.973Z,-12.43
2022-12-14T06:31:43.032Z,-12.42
2022-12-14T06:32:46.513Z,-12.36
2022-12-14T06:33:53.482Z,-12.47
2022-12-14T06:35:00.259Z,-12.39
2022-12-14T06:36:04.604Z,-12.38
2022-12-14T06:37:10.813Z,-12.37
2022-12-14T06:38:18.189Z,-12.29
2022-12-14T06:39:24.245Z,-12.38
2022-12-14T06:40:28.418Z,-12.38
2022-12-14T06:41:34.838Z,-12.41
2022-12-14T06:42:40.744Z,-12.34
2022-12-14T06:43:49.353Z,-12.38
2022-12-14T06:44:55.767Z,-12.29
2022-12-14T06:46:00.104Z,-12.28
2022-12-14T06:47:06.133Z,-12.25
2022-12-14T06:48:10.043Z,-12.29
2022-12-14T06:49:19.806Z,-12.28
2022-12-14T06:50:23.213Z,-12.19
2022-12-14T06:51:30.074Z,-12.21
2022-12-14T06:52:37.743Z,-12.21
2022-12-14T06:53:43.861Z,-12.37
2022-12-14T06:54:50.816Z,-12.32
2022-12-14T06:55:54.111Z,-12.25
2022-12-14T06:57:00.927Z,-12.26
2022-12-14T06:58:04.509Z,-12.29
2022-12-14T06:59:11.575Z,-12.27
2022-12-14T07:00:18.553Z,-12.33
2022-12-14T07:01:29.035Z,-12.31
2022-12-14T07:02:36.169Z,-12.35
2022-12-14T07:03:43.759Z,-12.26
2022-12-14T07:04:49.624Z,-12.37
2022-12-14T07:05:57.529Z,-12.37
2022-12-14T07:07:03.398Z,-12.32
2022-12-14T07:08:07.584Z,-12.27
2022-12-14T07:09:18.296Z,-12.24
2022-12-14T07:10:24.364Z,-12.24
2022-12-14T07:11:33.499Z,-12.28
2022-12-14T07:12:37.477Z,-12.29
2022-12-14T07:13:45.212Z,-12.23
2022-12-14T07:14:54.895Z,-12.20
2022-12-14T07:16:00.378Z,-12.20
2022-12-14T07:17:07.547Z,-12.14
2022-12-14T07:18:11.026Z,-12.08
2022-12-14T07:19:18.322Z,-12.03
2022-12-14T07:20:24.392Z,-12.09
2022-12-14T07:21:30.532Z,-12.05
2022-12-14T07:22:37.344Z,-12.06
2022-12-14T07:23:43.157Z,-11.95
2022-12-14T07:24:53.274Z,-11.91
2022-12-14T07:26:02.732Z,-11.86
2022-12-14T07:27:09.444Z,-11.83
2022-12-14T07:28:12.702Z,-11.83
2022-12-14T07:29:18.864Z,-11.75
2022-12-14T07:30:23.125Z,-11.72
2022-12-14T07:31:31.700Z,-11.66
2022-12-14T07:32:37.732Z,-11.60
2022-12-14T07:33:41.117Z,-11.53
2022-12-14T07:34:47.041Z,-11.49
2022-12-14T07:35:51.672Z,-11.46
2022-12-14T07:36:58.534Z,-11.42
2022-12-14T07:38:04.565Z,-11.33
2022-12-14T07:39:10.968Z,-11.30
2022-12-14T07:40:20.074Z,-11.27
2022-12-14T07:41:27.118Z,-11.22
2022-12-14T07:42:33.291Z,-11.29
2022-12-14T07:43:36.875Z,-11.24
2022-12-14T07:44:42.844Z,-11.22
2022-12-14T07:45:46.191Z,-11.31
2022-12-14T07:46:53.378Z,-11.26
2022-12-14T07:47:59.329Z,-11.27
2022-12-14T07:49:06.813Z,-11.25
2022-12-14T07:50:13.508Z,-11.23
2022-12-14T07:51:23.943Z,-11.15
2022-12-14T07:52:37.152Z,-11.08
2022-12-14T07:53:45.390Z,-11.08
2022-12-14T07:54:52.662Z,-11.17
2022-12-14T07:56:05.599Z,-11.14
2022-12-14T07:57:11.457Z,-11.11
2022-12-14T07:58:16.070Z,-11.12
2022-12-14T07:59:22.472Z,-11.12
2022-12-14T08:00:25.956Z,-11.12
2022-12-14T08:01:34.632Z,-11.09
2022-12-14T08:02:40.681Z,-11.13
2022-12-14T08:03:51.075Z,-11.18
2022-12-14T08:04:57.117Z,-11.10
2022-12-14T08:06:04.541Z,-11.12
2022-12-14T08:07:10.394Z,-11.02
2022-12-14T08:08:14.112Z,-10.99
2022-12-14T08:09:21.215Z,-10.96
2022-12-14T08:10:25.213Z,-10.90
2022-12-14T08:11:33.876Z,-10.90
2022-12-14T08:12:40.333Z,-10.78
2022-12-14T08:13:44.055Z,-10.68
2022-12-14T08:14:52.122Z,-10.58
2022-12-14T08:15:58.486Z,-10.46
2022-12-14T08:17:05.489Z,-10.39
2022-12-14T08:18:11.397Z,-10.33
2022-12-14T08:19:15.292Z,-10.38
2022-12-14T08:20:22.058Z,-10.36
2022-12-14T08:21:29.882Z,-10.28
2022-12-14T08:22:35.926Z,-10.25
2022-12-14T08:23:43.392Z,-10.28
2022-12-14T08:24:49.406Z,-10.10
2022-12-14T08:25:55.371Z,-10.09
2022-12-14T08:27:03.925Z,-10.01
2022-12-14T08:28:07.336Z,-9.97
2022-12-14T08:29:15.584Z,-9.88
2022-12-14T08:30:21.680Z,-9.81
2022-12-14T08:31:30.917Z,-9.73
2022-12-14T08:32:37.142Z,-9.74
2022-12-14T08:33:45.340Z,-9.68
2022-12-14T08:34:52.623Z,-9.44
2022-12-14T08:35:55.976Z,-9.19
2022-12-14T08:37:02.827Z,-9.16
2022-12-14T08:38:06.191Z,-9.14
2022-12-14T08:39:14.207Z,-9.05
2022-12-14T08:40:17.596Z,-9.06
2022-12-14T08:41:23.842Z,-9.01
2022-12-14T08:42:36.295Z,-9.11
2022-12-14T08:43:45.368Z,-9.03
2022-12-14T08:44:51.302Z,-9.10
2022-12-14T08:45:55.862Z,-9.21
2022-12-14T08:47:01.978Z,-9.24
2022-12-14T08:48:06.792Z,-9.23
2022-12-14T08:49:14.248Z,-9.38
2022-12-14T08:50:20.681Z,-9.40
2022-12-14T08:51:29.236Z,-9.41
2022-12-14T08:52:35.291Z,-9.31
2022-12-14T08:53:43.413Z,-9.15
2022-12-14T08:54:49.420Z,-9.14
2022-12-14T08:55:53.085Z,-9.21
2022-12-14T08:56:58.964Z,-9.20
2022-12-14T08:58:07.488Z,-9.22
2022-12-14T08:59:30.237Z,-9.18
2022-12-14T09:00:41.996Z,-9.18
2022-12-14T09:01:48.508Z,-9.08
2022-12-14T09:02:52.585Z,-9.16
2022-12-14T09:03:58.778Z,-9.05
2022-12-14T09:05:06.139Z,-9.11
2022-12-14T09:06:17.370Z,-9.03
2022-12-14T09:07:23.362Z,-8.79
2022-12-14T09:08:30.383Z,-8.61
2022-12-14T09:09:38.694Z,-8.49
2022-12-14T09:10:51.972Z,-8.44
2022-12-14T09:11:57.998Z,-8.32
2022-12-14T09:13:04.006Z,-8.30
2022-12-14T09:14:09.885Z,-8.37
2022-12-14T09:15:15.891Z,-8.24
2022-12-14T09:16:26.511Z,-8.11
2022-12-14T09:17:32.920Z,-7.92
2022-12-14T09:18:39.042Z,-7.82
2022-12-14T09:19:45.169Z,-7.90
2022-12-14T09:20:51.868Z,-7.79
2022-12-14T09:21:59.477Z,-7.72
2022-12-14T09:23:05.510Z,-7.67
2022-12-14T09:24:13.293Z,-7.76
2022-12-14T09:25:16.919Z,-7.69
2022-12-14T09:26:26.199Z,-7.79
2022-12-14T09:27:33.788Z,-7.88
2022-12-14T09:28:45.206Z,-8.03
2022-12-14T09:29:51.320Z,-8.12
2022-12-14T09:31:02.317Z,-8.05
2022-12-14T09:32:09.296Z,-7.98
2022-12-14T09:33:13.566Z,-8.06
2022-12-14T09:34:19.617Z,-8.16
2022-12-14T09:35:25.657Z,-8.31
2022-12-14T09:36:32.383Z,-8.40
2022-12-14T09:37:39.252Z,-8.60
2022-12-14T09:38:51.572Z,-8.47
2022-12-14T09:39:58.246Z,-8.38
2022-12-14T09:41:07.665Z,-8.31
2022-12-14T09:42:50.523Z,-8.48
2022-12-14T09:44:18.734Z,-8.35
2022-12-14T09:45:35.680Z,-8.42
2022-12-14T09:47:01.986Z,-8.66
2022-12-14T09:48:20.522Z,-8.67
2022-12-14T09:49:35.331Z,-8.44
2022-12-14T09:50:43.771Z,-8.39
2022-12-14T09:51:47.419Z,-8.30
2022-12-14T09:52:59.167Z,-8.29
2022-12-14T09:54:13.928Z,-8.24
2022-12-14T09:55:27.416Z,-8.16
2022-12-14T09:56:36.946Z,-8.21
2022-12-14T09:57:48.092Z,-8.26
2022-12-14T09:59:02.387Z,-8.21
2022-12-14T10:00:18.306Z,-8.10
2022-12-14T10:03:54.865Z,-8.20
2022-12-14T10:05:35.477Z,-8.29
2022-12-14T10:06:55.609Z,-8.48
2022-12-14T10:08:11.896Z,-8.31
2022-12-14T10:09:32.729Z,-8.35
2022-12-14T10:10:53.787Z,-8.29
2022-12-14T10:12:26.315Z,-8.29
2022-12-14T10:13:59.318Z,-8.46
2022-12-14T10:15:27.802Z,-8.33
2022-12-14T10:16:52.088Z,-8.57
2022-12-14T10:19:02.028Z,-8.35
2022-12-14T10:20:25.226Z,-8.24
2022-12-14T10:21:47.128Z,-8.08
2022-12-14T10:22:56.509Z,-8.05
2022-12-14T10:24:06.734Z,-7.97
2022-12-14T10:25:21.756Z,-7.94
2022-12-14T10:26:39.240Z,-7.93
2022-12-14T10:28:12.492Z,-7.90
2022-12-14T10:29:34.633Z,-7.92
2022-12-14T10:30:46.879Z,-7.87
2022-12-14T10:32:08.077Z,-7.76
2022-12-14T10:33:27.823Z,-7.77
2022-12-14T10:34:35.087Z,-7.76
2022-12-14T10:35:53.149Z,-7.82
2022-12-14T10:37:23.851Z,-7.95
2022-12-14T10:38:44.459Z,-7.92
2022-12-14T10:40:33.545Z,-7.91
2022-12-14T10:41:53.246Z,-7.91
2022-12-14T10:43:46.362Z,-7.82
2022-12-14T10:45:39.865Z,-7.79
2022-12-14T10:47:00.134Z,-7.95
2022-12-14T10:48:40.004Z,-8.00
2022-12-14T10:50:00.880Z,-8.02
2022-12-14T10:51:14.023Z,-7.96
2022-12-14T10:52:26.595Z,-7.97
2022-12-14T10:53:44.205Z,-8.07
2022-12-14T10:54:57.754Z,-7.85
2022-12-14T10:56:15.316Z,-7.89
2022-12-14T10:57:26.658Z,-7.86
2022-12-14T10:58:30.304Z,-7.86
2022-12-14T10:59:47.965Z,-7.83
2022-12-14T11:01:06.647Z,-7.78
2022-12-14T11:02:19.380Z,-7.76
2022-12-14T11:03:26.555Z,-7.96
2022-12-14T11:04:39.254Z,-8.10
2022-12-14T11:06:01.921Z,-8.35
2022-12-14T11:07:11.486Z,-8.29
2022-12-14T11:08:48.346Z,-8.31
2022-12-14T11:09:56.356Z,-8.28
2022-12-14T11:11:19.181Z,-8.33
2022-12-14T11:12:29.994Z,-8.40
2022-12-14T11:13:35.995Z,-8.45
2022-12-14T11:14:53.492Z,-8.45
2022-12-14T11:16:33.640Z,-8.45
2022-12-14T11:17:47.225Z,-8.55
2022-12-14T11:19:00.106Z,-8.36
2022-12-14T11:20:24.465Z,-8.40
2022-12-14T11:21:38.204Z,-8.38
2022-12-14T11:22:49.210Z,-8.34
2022-12-14T11:23:58.464Z,-8.29
2022-12-14T11:25:04.501Z,-8.35
2022-12-14T11:26:17.843Z,-8.47
2022-12-14T11:27:25.146Z,-8.52
2022-12-14T11:28:37.724Z,-8.65
2022-12-14T11:29:51.080Z,-8.59
2022-12-14T11:31:06.019Z,-8.52
2022-12-14T11:32:25.951Z,-8.43
2022-12-14T11:33:43.296Z,-8.47
2022-12-14T11:35:00.387Z,-8.48
2022-12-14T11:36:07.543Z,-8.44
2022-12-14T11:37:26.543Z,-8.32
2022-12-14T11:38:34.311Z,-8.27
2022-12-14T11:39:45.349Z,-8.19
2022-12-14T11:40:55.718Z,-8.11
2022-12-14T11:42:07.036Z,-8.10
2022-12-14T11:43:30.211Z,-7.98
2022-12-14T11:44:40.202Z,-8.00
2022-12-14T11:45:55.117Z,-7.89
2022-12-14T11:47:10.007Z,-7.87
2022-12-14T11:48:26.107Z,-7.80
2022-12-14T11:49:46.426Z,-7.67
2022-12-14T11:50:56.408Z,-7.66
2022-12-14T11:52:12.253Z,-7.60
2022-12-14T11:53:21.730Z,-7.49
2022-12-14T11:54:30.870Z,-7.40
2022-12-14T11:55:43.535Z,-7.23
2022-12-14T11:56:54.401Z,-7.10
2022-12-14T11:58:02.904Z,-6.95
2022-12-14T11:59:09.166Z,-6.96
2022-12-14T12:00:28.742Z,-7.01
2022-12-14T12:01:35.178Z,-6.64
2022-12-14T12:02:51.912Z,-6.32
2022-12-14T12:04:01.851Z,-6.16
2022-12-14T12:05:18.993Z,-6.04
2022-12-14T12:06:28.684Z,-5.85
2022-12-14T12:07:39.486Z,-5.56
2022-12-14T12:08:47.897Z,-5.40
2022-12-14T12:09:51.583Z,-5.09
2022-12-14T12:11:02.373Z,-4.84
2022-12-14T12:12:18.245Z,-4.81
2022-12-14T12:13:33.137Z,-4.43
2022-12-14T12:14:42.914Z,-4.23
2022-12-14T12:15:57.557Z,-4.07
2022-12-14T12:17:05.602Z,-3.89
2022-12-14T12:18:24.332Z,-3.76
2022-12-14T12:19:40.583Z,-4.01
2022-12-14T12:21:00.148Z,-4.13
2022-12-14T12:22:13.584Z,-4.09
2022-12-14T12:23:29.154Z,-4.19
2022-12-14T12:25:16.273Z,-4.13
2022-12-14T12:26:22.851Z,-4.77
2022-12-14T12:27:32.529Z,-4.72
2022-12-14T12:28:50.404Z,-4.72
2022-12-14T12:30:07.994Z,-4.87
2022-12-14T12:31:29.375Z,-5.01
2022-12-14T12:32:50.257Z,-5.11
2022-12-14T12:34:05.711Z,-5.26
2022-12-14T12:35:24.193Z,-5.24
2022-12-14T12:36:36.534Z,-5.30
2022-12-14T12:37:51.951Z,-5.29
2022-12-14T12:39:09.633Z,-5.36
2022-12-14T12:40:20.171Z,-5.42
2022-12-14T12:41:41.209Z,-5.53
2022-12-14T12:42:57.363Z,-5.58
2022-12-14T12:44:24.257Z,-5.79
2022-12-14T12:45:41.152Z,-5.95
2022-12-14T12:47:25.564Z,-5.80
2022-12-14T12:48:42.811Z,-6.15
2022-12-14T12:49:48.925Z,-6.19
2022-12-14T12:51:05.032Z,-6.18
2022-12-14T12:52:27.259Z,-6.24
2022-12-14T12:53:41.978Z,-6.26
2022-12-14T12:55:04.292Z,-6.31
2022-12-14T12:56:18.707Z,-6.34
2022-12-14T12:57:29.443Z,-6.41
2022-12-14T12:58:37.427Z,-6.51
2022-12-14T12:59:53.462Z,-6.66
2022-12-14T13:01:05.584Z,-6.62
2022-12-14T13:02:31.499Z,-6.71
2022-12-14T13:03:46.031Z,-6.75
2022-12-14T13:04:56.915Z,-6.70
2022-12-14T13:06:18.931Z,-6.78
2022-12-14T13:07:39.670Z,-6.87
2022-12-14T13:08:51.745Z,-7.02
2022-12-14T13:10:06.511Z,-6.98
2022-12-14T13:11:26.752Z,-7.12
2022-12-14T13:12:42.150Z,-7.12
2022-12-14T13:13:55.733Z,-7.05
2022-12-14T13:15:08.166Z,-7.06
2022-12-14T13:16:27.470Z,-7.13
2022-12-14T13:17:47.166Z,-7.13
2022-12-14T13:19:25.308Z,-7.15
2022-12-14T13:20:36.755Z,-7.20
2022-12-14T13:21:50.073Z,-7.35
2022-12-14T13:23:15.230Z,-7.30
2022-12-14T13:24:27.493Z,-7.31
2022-12-14T13:25:55.036Z,-7.41
2022-12-14T13:27:34.945Z,-7.37
2022-12-14T13:29:04.822Z,-7.43
2022-12-14T13:30:35.609Z,-7.41
2022-12-14T13:31:58.840Z,-7.40
2022-12-14T13:33:55.198Z,-7.38
2022-12-14T13:35:26.162Z,-7.39
2022-12-14T13:37:05.345Z,-7.50
2022-12-14T13:38:48.742Z,-7.62
2022-12-14T13:40:42.099Z,-7.61
2022-12-14T13:42:05.071Z,-7.63
2022-12-14T13:43:37.378Z,-7.76
2022-12-14T13:45:01.967Z,-7.69
2022-12-14T13:46:19.897Z,-7.70
2022-12-14T13:47:36.004Z,-7.77
2022-12-14T13:48:45.009Z,-7.67
2022-12-14T13:51:37.871Z,-7.74
2022-12-14T13:52:50.932Z,-7.78
2022-12-14T13:54:03.675Z,-7.64
2022-12-14T13:55:30.753Z,-7.69
2022-12-14T13:56:42.223Z,-7.74
2022-12-14T13:57:46.651Z,-7.81
2022-12-14T13:59:00.545Z,-7.87
2022-12-14T14:00:08.050Z,-7.89
2022-12-14T14:01:39.908Z,-7.89
2022-12-14T14:02:55.879Z,-7.88
2022-12-14T14:04:25.967Z,-7.81
2022-12-14T14:05:48.780Z,-7.81
2022-12-14T14:06:56.445Z,-7.84
2022-12-14T14:08:06.372Z,-7.86
2022-12-14T14:10:04.447Z,-7.87
2022-12-14T14:12:04.866Z,-7.89
2022-12-14T14:13:55.396Z,-7.88
2022-12-14T14:15:31.822Z,-7.92
2022-12-14T14:16:46.058Z,-7.87
2022-12-14T14:17:58.536Z,-7.87
2022-12-14T14:19:22.930Z,-7.82
2022-12-14T14:20:42.763Z,-7.81
2022-12-14T14:22:24.635Z,-7.81
2022-12-14T14:23:56.148Z,-7.83
2022-12-14T14:25:10.081Z,-7.90
2022-12-14T14:26:37.382Z,-7.90
2022-12-14T14:27:52.617Z,-7.93
2022-12-14T14:29:27.722Z,-7.81
2022-12-14T14:30:44.642Z,-7.82
2022-12-14T14:31:57.846Z,-7.98
2022-12-14T14:33:48.708Z,-7.93
2022-12-14T14:34:56.520Z,-7.92
2022-12-14T14:36:13.577Z,-7.97
2022-12-14T14:37:34.382Z,-7.86
2022-12-14T14:38:41.742Z,-7.82
2022-12-14T14:39:57.656Z,-7.80
2022-12-14T14:41:17.616Z,-7.88
2022-12-14T14:42:32.044Z,-7.78
2022-12-14T14:43:45.360Z,-7.78
2022-12-14T14:45:00.286Z,-7.77
2022-12-14T14:46:14.486Z,-7.84
2022-12-14T14:47:34.247Z,-7.81
2022-12-14T14:48:53.270Z,-7.92
2022-12-14T14:50:06.198Z,-7.73
2022-12-14T14:51:27.195Z,-7.67
2022-12-14T14:53:32.217Z,-7.70
2022-12-14T14:56:46.657Z,-7.68
2022-12-14T14:58:03.887Z,-7.71
2022-12-14T14:59:50.759Z,-7.65
2022-12-14T15:01:15.498Z,-7.66
2022-12-14T15:02:43.146Z,-7.67
2022-12-14T15:04:00.190Z,-7.67
2022-12-14T15:05:40.980Z,-7.59
2022-12-14T15:06:47.491Z,-7.57
2022-12-14T15:07:56.769Z,-7.56
2022-12-14T15:09:15.465Z,-7.54
2022-12-14T15:10:35.565Z,-7.53
2022-12-14T15:11:50.508Z,-7.50
2022-12-14T15:13:06.263Z,-7.59
2022-12-14T15:14:36.393Z,-7.57
2022-12-14T15:15:48.881Z,-7.54
2022-12-14T15:16:55.485Z,-7.53
2022-12-14T15:18:23.866Z,-7.53
2022-12-14T15:19:38.478Z,-7.47
2022-12-14T15:20:46.029Z,-7.46
2022-12-14T15:21:56.121Z,-7.49
2022-12-14T15:23:02.274Z,-7.47
2022-12-14T15:24:09.103Z,-7.52
2022-12-14T15:25:26.459Z,-7.49
2022-12-14T15:26:37.436Z,-7.43
2022-12-14T15:27:44.802Z,-7.39
2022-12-14T15:28:54.588Z,-7.42
2022-12-14T15:30:09.410Z,-7.46
2022-12-14T15:31:17.730Z,-7.42
2022-12-14T15:32:29.371Z,-7.42